createdAt,value
2023-05-16T00:00:08.922Z,68.96
2023-05-16T00:02:54.426Z,69.85
2023-05-16T00:05:39.953Z,70.00
2023-05-16T00:08:25.203Z,69.75
2023-05-16T00:11:10.719Z,70.25
2023-05-16T00:13:55.940Z,70.04
2023-05-16T00:16:41.339Z,70.41
2023-05-16T00:19:26.663Z,70.34
2023-05-16T00:22:11.871Z,72.46
2023-05-16T00:24:57.101Z,72.74
2023-05-16T00:27:42.508Z,73.08
2023-05-16T00:30:27.932Z,74.00
2023-05-16T00:33:13.559Z,73.44
2023-05-16T00:35:58.712Z,73.35
2023-05-16T00:38:43.939Z,73.64
2023-05-16T00:41:29.554Z,73.82
2023-05-16T00:44:14.929Z,72.93
2023-05-16T00:47:01.377Z,72.82
2023-05-16T00:49:46.714Z,73.75
2023-05-16T00:52:31.976Z,73.75
2023-05-16T00:55:17.410Z,74.60
2023-05-16T00:58:02.891Z,75.68
2023-05-16T01:00:48.993Z,75.70
2023-05-16T01:03:34.545Z,75.35
2023-05-16T01:06:20.175Z,74.91
2023-05-16T01:09:06.783Z,76.82
2023-05-16T01:12:14.784Z,76.17
2023-05-16T01:15:04.665Z,77.22
2023-05-16T01:18:10.343Z,76.66
2023-05-16T01:21:07.410Z,75.46
2023-05-16T01:24:03.791Z,75.61
2023-05-16T01:26:51.694Z,75.41
2023-05-16T01:29:37.334Z,75.21
2023-05-16T01:32:22.832Z,74.82
2023-05-16T01:35:11.869Z,74.53
2023-05-16T01:38:39.342Z,74.15
2023-05-16T01:41:34.750Z,73.53
2023-05-16T01:44:33.411Z,73.59
2023-05-16T01:47:20.830Z,73.82
2023-05-16T01:50:15.846Z,73.61
2023-05-16T01:53:07.540Z,73.51
2023-05-16T01:56:18.634Z,73.48
2023-05-16T01:59:04.969Z,73.42
2023-05-16T02:01:54.323Z,73.93
2023-05-16T02:04:39.396Z,74.16
2023-05-16T02:07:25.023Z,74.05
2023-05-16T02:10:11.148Z,74.07
2023-05-16T02:12:56.389Z,74.44
2023-05-16T02:15:41.670Z,73.59
2023-05-16T02:18:27.497Z,73.35
2023-05-16T02:21:12.820Z,73.11
2023-05-16T02:23:57.844Z,73.10
2023-05-16T02:26:45.528Z,72.98
2023-05-16T02:29:30.969Z,73.49
2023-05-16T02:32:16.324Z,73.38
2023-05-16T02:35:01.760Z,73.87
2023-05-16T02:37:47.284Z,73.95
2023-05-16T02:40:32.719Z,73.95
2023-05-16T02:43:18.210Z,74.72
2023-05-16T02:46:29.653Z,75.08
2023-05-16T02:49:14.840Z,75.07
2023-05-16T02:52:00.249Z,76.86
2023-05-16T02:54:48.823Z,77.64
2023-05-16T02:57:45.595Z,78.22
2023-05-16T03:00:31.114Z,78.76
2023-05-16T03:03:16.431Z,78.65
2023-05-16T03:06:02.263Z,79.45
2023-05-16T03:08:47.597Z,80.15
2023-05-16T03:11:36.806Z,80.20
2023-05-16T03:14:22.334Z,80.26
2023-05-16T03:17:07.516Z,79.47
2023-05-16T03:19:53.715Z,78.30
2023-05-16T03:22:39.181Z,78.87
2023-05-16T03:25:24.684Z,78.77
2023-05-16T03:28:09.970Z,78.57
2023-05-16T03:30:55.364Z,78.03
2023-05-16T03:33:40.561Z,77.16
2023-05-16T03:36:27.147Z,77.51
2023-05-16T03:39:12.736Z,77.76
2023-05-16T03:41:58.127Z,78.44
2023-05-16T03:44:43.487Z,78.91
2023-05-16T03:47:28.742Z,78.36
2023-05-16T03:50:14.194Z,77.71
2023-05-16T03:52:59.174Z,77.56
2023-05-16T03:55:45.829Z,77.07
2023-05-16T03:58:32.032Z,77.27
2023-05-16T04:01:17.348Z,79.70
2023-05-16T04:04:02.441Z,79.86
2023-05-16T04:06:47.826Z,79.04
2023-05-16T04:09:33.231Z,79.06
2023-05-16T04:12:18.583Z,79.49
2023-05-16T04:15:05.288Z,79.22
2023-05-16T04:17:50.540Z,79.24
2023-05-16T04:20:36.083Z,80.24
2023-05-16T04:23:21.617Z,79.85
2023-05-16T04:26:06.763Z,79.32
2023-05-16T04:28:52.266Z,78.65
2023-05-16T04:31:37.743Z,80.06
2023-05-16T04:34:23.304Z,79.51
2023-05-16T04:37:08.838Z,80.61
2023-05-16T04:39:54.694Z,78.97
2023-05-16T04:42:40.546Z,81.36
2023-05-16T04:45:26.013Z,80.16
2023-05-16T04:48:11.373Z,78.84
2023-05-16T04:50:57.018Z,79.14
2023-05-16T04:53:42.125Z,79.88
2023-05-16T04:56:27.586Z,79.32
2023-05-16T04:59:12.752Z,82.73
2023-05-16T05:01:58.073Z,82.55
2023-05-16T05:04:43.324Z,81.44
2023-05-16T05:07:29.625Z,80.37
2023-05-16T05:10:14.963Z,81.07
2023-05-16T05:13:00.367Z,80.15
2023-05-16T05:15:45.607Z,80.48
2023-05-16T05:18:31.114Z,80.92
2023-05-16T05:21:16.421Z,82.14
2023-05-16T05:24:01.834Z,82.66
2023-05-16T05:26:47.110Z,83.03
2023-05-16T05:29:32.674Z,82.57
2023-05-16T05:32:18.250Z,83.47
2023-05-16T05:35:03.987Z,84.42
2023-05-16T05:37:49.072Z,85.20
2023-05-16T05:40:34.558Z,84.96
2023-05-16T05:43:20.076Z,85.29
2023-05-16T05:46:05.837Z,85.70
2023-05-16T05:48:51.763Z,86.08
2023-05-16T05:51:37.412Z,85.82
2023-05-16T05:54:23.684Z,86.06
2023-05-16T05:57:08.996Z,87.17
2023-05-16T05:59:54.321Z,87.18
2023-05-16T06:02:39.739Z,87.93
2023-05-16T06:05:25.593Z,86.37
2023-05-16T06:08:10.891Z,86.82
2023-05-16T06:10:55.963Z,85.61
2023-05-16T06:13:41.149Z,85.93
2023-05-16T06:16:26.974Z,86.94
2023-05-16T06:19:12.399Z,86.42
2023-05-16T06:21:57.642Z,85.52
2023-05-16T06:24:43.074Z,82.70
2023-05-16T06:27:28.370Z,84.64
2023-05-16T06:30:14.034Z,82.97
2023-05-16T06:32:59.486Z,84.42
2023-05-16T06:35:45.248Z,84.66
2023-05-16T06:38:30.505Z,83.83
2023-05-16T06:41:15.734Z,84.60
2023-05-16T06:44:01.408Z,87.99
2023-05-16T06:46:46.940Z,89.03
2023-05-16T06:49:32.854Z,87.79
2023-05-16T06:52:18.060Z,87.52
2023-05-16T06:55:03.694Z,87.68
2023-05-16T06:57:49.254Z,86.65
2023-05-16T07:00:34.842Z,86.14
2023-05-16T07:03:20.251Z,87.43
2023-05-16T07:06:06.192Z,86.33
2023-05-16T07:08:51.686Z,86.86
2023-05-16T07:11:37.086Z,85.74
2023-05-16T07:14:22.717Z,86.87
2023-05-16T07:17:07.911Z,85.66
2023-05-16T07:19:53.401Z,86.71
2023-05-16T07:22:38.551Z,87.14
2023-05-16T07:25:25.104Z,88.31
2023-05-16T07:28:10.805Z,86.67
2023-05-16T07:30:56.216Z,88.12
2023-05-16T07:33:41.461Z,88.11
2023-05-16T07:36:26.917Z,87.38
2023-05-16T07:39:12.176Z,86.81
2023-05-16T07:41:57.711Z,85.54
2023-05-16T07:44:42.937Z,83.56
2023-05-16T07:47:29.220Z,83.94
2023-05-16T07:50:14.293Z,84.32
2023-05-16T07:52:59.557Z,84.93
2023-05-16T07:55:45.145Z,82.66
2023-05-16T07:58:30.622Z,82.22
2023-05-16T08:01:16.156Z,81.72
2023-05-16T08:04:01.724Z,80.66
2023-05-16T08:06:49.161Z,79.04
2023-05-16T08:09:35.201Z,79.32
2023-05-16T08:12:20.493Z,80.18
2023-05-16T08:15:06.592Z,79.95
2023-05-16T08:17:51.770Z,84.16
2023-05-16T08:20:37.322Z,85.69
2023-05-16T08:23:22.378Z,85.76
2023-05-16T08:26:07.608Z,84.69
2023-05-16T08:28:53.054Z,85.13
2023-05-16T08:31:38.579Z,84.64
2023-05-16T08:34:24.101Z,84.31
2023-05-16T08:37:09.520Z,83.99
2023-05-16T08:39:54.894Z,83.40
2023-05-16T08:42:40.845Z,83.40
2023-05-16T08:45:28.406Z,83.71
2023-05-16T08:48:16.746Z,82.38
2023-05-16T08:51:02.895Z,82.47
2023-05-16T08:53:57.588Z,79.20
2023-05-16T08:56:47.445Z,77.97
2023-05-16T08:59:32.845Z,77.05
2023-05-16T09:02:18.332Z,75.30
2023-05-16T09:05:04.943Z,75.60
2023-05-16T09:07:50.174Z,76.05
2023-05-16T09:10:35.740Z,76.84
2023-05-16T09:13:20.869Z,74.35
2023-05-16T09:16:10.042Z,73.37
2023-05-16T09:18:57.484Z,74.09
2023-05-16T09:21:43.243Z,72.94
2023-05-16T09:24:28.861Z,74.04
2023-05-16T09:27:16.130Z,72.19
2023-05-16T09:30:01.661Z,72.70
2023-05-16T09:32:47.028Z,72.57
2023-05-16T09:38:20.811Z,74.68
2023-05-16T09:41:05.936Z,75.65
2023-05-16T09:43:51.880Z,74.59
2023-05-16T09:46:38.555Z,74.95
2023-05-16T09:49:24.416Z,73.76
2023-05-16T09:52:10.039Z,74.29
2023-05-16T09:54:55.252Z,75.16
2023-05-16T09:57:40.723Z,76.80
2023-05-16T10:00:33.791Z,73.47
2023-05-16T10:03:19.350Z,68.33
2023-05-16T10:06:05.685Z,66.62
2023-05-16T10:08:53.510Z,65.94
2023-05-16T10:11:41.812Z,62.21
2023-05-16T10:14:27.280Z,60.02
2023-05-16T10:17:16.066Z,62.51
2023-05-16T10:20:05.550Z,64.17
2023-05-16T10:22:55.338Z,64.21
2023-05-16T10:25:42.001Z,60.65
2023-05-16T10:28:28.614Z,60.64
2023-05-16T10:31:14.098Z,61.30
2023-05-16T10:34:00.202Z,58.99
2023-05-16T10:36:47.119Z,59.21
2023-05-16T10:39:32.730Z,59.95
2023-05-16T10:42:18.283Z,54.52
2023-05-16T10:45:17.498Z,55.66
2023-05-16T10:48:05.123Z,57.39
2023-05-16T10:50:50.669Z,55.04
2023-05-16T10:53:36.194Z,57.26
2023-05-16T10:56:26.336Z,57.21
2023-05-16T10:59:25.214Z,54.81
2023-05-16T11:02:30.768Z,55.46
2023-05-16T11:05:19.139Z,53.51
2023-05-16T11:08:07.498Z,54.50
2023-05-16T11:11:31.522Z,48.30
2023-05-16T11:14:25.023Z,51.83
2023-05-16T11:17:21.850Z,52.26
2023-05-16T11:20:07.940Z,49.75
2023-05-16T11:23:16.170Z,48.79
2023-05-16T11:26:03.531Z,49.72
2023-05-16T11:28:51.856Z,52.41
2023-05-16T11:31:37.441Z,45.57
2023-05-16T11:34:22.874Z,47.16
2023-05-16T11:37:10.888Z,49.18
2023-05-16T11:40:06.992Z,49.46
2023-05-16T11:42:52.489Z,47.17
2023-05-16T11:45:37.699Z,45.79
2023-05-16T11:48:35.701Z,46.58
2023-05-16T11:51:22.000Z,45.05
2023-05-16T11:54:09.500Z,45.41
2023-05-16T11:56:54.751Z,45.28
2023-05-16T11:59:40.200Z,48.87
2023-05-16T12:02:25.789Z,43.92
2023-05-16T12:05:11.346Z,45.24
2023-05-16T12:07:56.994Z,45.64
2023-05-16T12:10:42.721Z,43.82
2023-05-16T12:13:28.236Z,42.59
2023-05-16T12:16:13.626Z,43.39
2023-05-16T12:19:00.612Z,42.54
2023-05-16T12:21:46.081Z,42.74
2023-05-16T12:24:31.760Z,41.04
2023-05-16T12:27:24.664Z,44.00
2023-05-16T12:30:10.470Z,43.25
2023-05-16T12:33:00.311Z,43.92
2023-05-16T12:35:46.743Z,41.88
2023-05-16T12:38:32.102Z,47.63
2023-05-16T12:41:18.609Z,42.55
2023-05-16T12:44:11.385Z,43.90
2023-05-16T12:46:59.075Z,44.60
2023-05-16T12:49:48.180Z,43.99
2023-05-16T12:52:33.465Z,44.07
2023-05-16T12:55:20.174Z,45.11
2023-05-16T12:58:05.632Z,42.96
2023-05-16T13:00:51.261Z,43.72
2023-05-16T13:03:37.069Z,40.85
2023-05-16T13:06:22.770Z,43.03
2023-05-16T13:09:08.188Z,42.22
2023-05-16T13:11:54.250Z,40.47
2023-05-16T13:14:40.098Z,39.82
2023-05-16T13:17:27.234Z,40.30
2023-05-16T13:20:12.995Z,38.39
2023-05-16T13:22:58.468Z,41.18
2023-05-16T13:25:43.711Z,39.39
2023-05-16T13:28:28.894Z,40.61
2023-05-16T13:31:14.366Z,39.41
2023-05-16T13:33:59.507Z,41.63
2023-05-16T13:36:53.949Z,41.36
2023-05-16T13:39:40.371Z,43.04
2023-05-16T13:42:25.866Z,40.81
2023-05-16T13:45:11.204Z,36.78
2023-05-16T13:47:56.569Z,37.85
2023-05-16T13:50:44.214Z,39.57
2023-05-16T13:53:29.562Z,39.54
2023-05-16T13:56:15.304Z,37.39
2023-05-16T13:59:05.875Z,38.23
2023-05-16T14:01:52.459Z,37.60
2023-05-16T14:04:38.064Z,41.36
2023-05-16T14:07:23.607Z,36.63
2023-05-16T14:10:09.582Z,39.29
2023-05-16T14:12:55.090Z,40.59
2023-05-16T14:15:40.160Z,39.65
2023-05-16T14:18:25.940Z,40.04
2023-05-16T14:21:11.457Z,39.69
2023-05-16T14:23:56.509Z,39.18
2023-05-16T14:26:41.888Z,40.02
2023-05-16T14:29:27.137Z,38.07
2023-05-16T14:32:12.517Z,39.71
2023-05-16T14:34:57.779Z,40.22
2023-05-16T14:37:43.038Z,38.41
2023-05-16T14:40:28.540Z,39.36
2023-05-16T14:43:13.969Z,39.32
2023-05-16T14:45:59.263Z,38.50
2023-05-16T14:48:44.275Z,39.26
2023-05-16T14:51:29.914Z,40.02
2023-05-16T14:54:15.445Z,40.42
2023-05-16T14:57:00.908Z,40.12
2023-05-16T14:59:46.246Z,41.69
2023-05-16T15:02:31.536Z,39.07
2023-05-16T15:05:16.776Z,39.13
2023-05-16T15:08:02.517Z,37.58
2023-05-16T15:10:47.792Z,38.06
2023-05-16T15:13:33.960Z,37.77
2023-05-16T15:16:21.309Z,39.13
2023-05-16T15:19:06.754Z,37.97
2023-05-16T15:21:52.307Z,39.27
2023-05-16T15:24:37.888Z,42.54
2023-05-16T15:27:23.172Z,38.72
2023-05-16T15:30:09.035Z,38.66
2023-05-16T15:32:54.270Z,37.58
2023-05-16T15:35:40.013Z,38.02
2023-05-16T15:38:25.290Z,38.72
2023-05-16T15:41:22.360Z,39.11
2023-05-16T15:44:11.982Z,40.49
2023-05-16T15:46:58.477Z,39.92
2023-05-16T15:49:43.966Z,40.53
2023-05-16T15:52:29.986Z,41.23
2023-05-16T15:55:15.519Z,41.58
2023-05-16T15:58:00.928Z,40.97
2023-05-16T16:00:46.294Z,41.53
2023-05-16T16:03:31.602Z,40.04
2023-05-16T16:06:16.941Z,38.87
2023-05-16T16:09:04.620Z,38.72
2023-05-16T16:11:49.870Z,39.70
2023-05-16T16:14:35.269Z,40.39
2023-05-16T16:17:20.512Z,38.80
2023-05-16T16:20:06.314Z,40.25
2023-05-16T16:22:52.324Z,39.65
2023-05-16T16:25:37.623Z,39.89
2023-05-16T16:28:22.992Z,40.16
2023-05-16T16:31:08.380Z,40.37
2023-05-16T16:33:53.456Z,40.87
2023-05-16T16:36:38.900Z,42.32
2023-05-16T16:39:24.092Z,42.39
2023-05-16T16:42:10.820Z,44.85
2023-05-16T16:44:56.601Z,42.76
2023-05-16T16:47:42.069Z,43.43
2023-05-16T16:50:27.670Z,44.76
2023-05-16T16:53:13.307Z,45.13
2023-05-16T16:55:58.792Z,47.39
2023-05-16T16:58:44.046Z,43.23
2023-05-16T17:01:30.080Z,46.74
2023-05-16T17:04:15.593Z,44.18
2023-05-16T17:07:01.342Z,48.17
2023-05-16T17:09:46.883Z,46.22
2023-05-16T17:12:33.611Z,45.60
2023-05-16T17:15:19.921Z,44.96
2023-05-16T17:18:05.489Z,45.65
2023-05-16T17:20:50.808Z,45.05
2023-05-16T17:23:36.302Z,44.76
2023-05-16T17:26:21.632Z,45.02
2023-05-16T17:29:06.918Z,45.89
2023-05-16T17:31:52.128Z,45.38
2023-05-16T17:34:37.555Z,46.15
2023-05-16T17:37:22.750Z,45.14
2023-05-16T17:40:08.981Z,45.74
2023-05-16T17:42:54.488Z,45.60
2023-05-16T17:45:39.714Z,46.35
2023-05-16T17:48:24.951Z,46.41
2023-05-16T17:51:10.534Z,46.57
2023-05-16T17:53:56.392Z,47.41
2023-05-16T17:56:41.985Z,44.88
2023-05-16T17:59:27.700Z,42.94
2023-05-16T18:02:13.134Z,44.03
2023-05-16T18:04:58.901Z,44.43
2023-05-16T18:07:44.308Z,45.15
2023-05-16T18:10:36.847Z,44.73
2023-05-16T18:13:35.299Z,44.34
2023-05-16T18:16:20.685Z,44.97
2023-05-16T18:19:06.065Z,46.01
2023-05-16T18:21:51.692Z,45.10
2023-05-16T18:24:36.804Z,45.86
2023-05-16T18:27:22.152Z,45.45
2023-05-16T18:30:08.947Z,45.84
2023-05-16T18:32:54.186Z,45.57
2023-05-16T18:35:39.515Z,44.03
2023-05-16T18:38:32.554Z,44.71
2023-05-16T18:41:18.966Z,44.93
2023-05-16T18:44:04.360Z,45.69
2023-05-16T18:46:49.924Z,45.80
2023-05-16T18:49:35.264Z,46.54
2023-05-16T18:52:20.673Z,47.02
2023-05-16T18:55:09.075Z,46.47
2023-05-16T18:57:54.310Z,47.58
2023-05-16T19:00:39.846Z,47.50
2023-05-16T19:03:25.340Z,47.85
2023-05-16T19:06:10.625Z,48.13
2023-05-16T19:08:56.271Z,48.03
2023-05-16T19:11:41.600Z,48.21
2023-05-16T19:14:26.968Z,48.77
2023-05-16T19:17:12.060Z,48.10
2023-05-16T19:19:57.440Z,48.72
2023-05-16T19:22:43.227Z,49.35
2023-05-16T19:25:28.571Z,49.67
2023-05-16T19:28:16.112Z,48.51
2023-05-16T19:31:01.508Z,49.56
2023-05-16T19:33:46.797Z,47.80
2023-05-16T19:36:32.253Z,49.69
2023-05-16T19:39:17.900Z,49.91
2023-05-16T19:42:07.554Z,50.75
2023-05-16T19:44:53.372Z,50.08
2023-05-16T19:47:38.777Z,49.92
2023-05-16T19:50:24.346Z,50.13
2023-05-16T19:53:10.060Z,50.55
2023-05-16T19:55:55.458Z,49.40
2023-05-16T19:58:40.675Z,49.11
2023-05-16T20:01:26.018Z,49.19
2023-05-16T20:04:11.340Z,49.56
2023-05-16T20:06:56.634Z,49.38
2023-05-16T20:09:41.896Z,49.64
2023-05-16T20:12:27.323Z,50.26
2023-05-16T20:15:12.762Z,51.72
2023-05-16T20:17:58.091Z,51.68
2023-05-16T20:20:43.481Z,51.47
2023-05-16T20:23:28.949Z,51.55
2023-05-16T20:26:14.413Z,50.66
2023-05-16T20:28:59.835Z,51.69
2023-05-16T20:31:45.318Z,51.52
2023-05-16T20:34:30.797Z,51.03
2023-05-16T20:37:16.327Z,51.43
2023-05-16T20:40:01.513Z,51.03
2023-05-16T20:42:46.837Z,52.36
2023-05-16T20:45:32.407Z,52.94
2023-05-16T20:48:17.700Z,54.09
2023-05-16T20:51:03.141Z,54.80
2023-05-16T20:53:48.245Z,54.19
2023-05-16T20:56:33.825Z,55.13
2023-05-16T20:59:19.289Z,55.04
2023-05-16T21:02:04.900Z,56.26
2023-05-16T21:04:50.403Z,56.61
2023-05-16T21:07:35.855Z,56.52
2023-05-16T21:10:20.994Z,57.50
2023-05-16T21:13:06.139Z,58.25
2023-05-16T21:15:51.641Z,58.28
2023-05-16T21:18:36.957Z,58.02
2023-05-16T21:21:22.490Z,58.88
2023-05-16T21:24:07.889Z,59.14
2023-05-16T21:26:52.872Z,58.09
2023-05-16T21:29:38.336Z,57.21
2023-05-16T21:32:23.487Z,57.45
2023-05-16T21:35:09.062Z,56.82
2023-05-16T21:37:54.451Z,57.57
2023-05-16T21:40:39.683Z,57.78
2023-05-16T21:43:25.220Z,58.81
2023-05-16T21:46:10.699Z,59.77
2023-05-16T21:48:55.976Z,58.96
2023-05-16T21:51:41.627Z,58.71
2023-05-16T21:54:26.874Z,58.50
2023-05-16T21:57:12.207Z,58.85
2023-05-16T21:59:57.381Z,60.30
2023-05-16T22:02:45.856Z,59.55
2023-05-16T22:05:31.466Z,58.52
2023-05-16T22:08:16.858Z,58.35
2023-05-16T22:11:02.009Z,58.24
2023-05-16T22:13:47.312Z,58.64
2023-05-16T22:16:32.646Z,58.16
2023-05-16T22:19:18.379Z,57.87
2023-05-16T22:22:03.516Z,58.77
2023-05-16T22:24:48.995Z,58.65
2023-05-16T22:27:34.138Z,58.08
2023-05-16T22:30:19.776Z,57.98
2023-05-16T22:33:05.227Z,58.00
2023-05-16T22:35:50.409Z,57.77
2023-05-16T22:38:35.860Z,57.77
2023-05-16T22:41:20.999Z,58.24
2023-05-16T22:44:06.547Z,59.06
2023-05-16T22:46:51.695Z,60.68
2023-05-16T22:49:37.122Z,61.14
2023-05-16T22:52:22.430Z,61.86
2023-05-16T22:55:08.732Z,61.28
2023-05-16T22:57:54.414Z,61.57
2023-05-16T23:00:39.428Z,60.87
2023-05-16T23:03:24.972Z,60.31
2023-05-16T23:06:10.515Z,60.84
2023-05-16T23:08:55.618Z,60.64
2023-05-16T23:11:40.908Z,59.93
2023-05-16T23:14:26.537Z,61.20
2023-05-16T23:17:11.948Z,62.57
2023-05-16T23:19:57.822Z,63.20
2023-05-16T23:22:43.339Z,62.52
2023-05-16T23:25:29.033Z,62.40
2023-05-16T23:28:14.859Z,62.71
2023-05-16T23:31:00.504Z,62.03
2023-05-16T23:33:45.764Z,62.28
2023-05-16T23:36:31.346Z,62.92
2023-05-16T23:39:16.743Z,62.80
2023-05-16T23:42:02.151Z,62.52
2023-05-16T23:44:47.336Z,61.21
2023-05-16T23:47:33.025Z,62.06
2023-05-16T23:50:18.772Z,62.86
2023-05-16T23:53:04.279Z,63.25
2023-05-16T23:55:49.430Z,62.43
2023-05-16T23:58:35.295Z,61.95
